This is the latest recevied weather packets stored in our database for station/object KK6LZB. If no packets are shown the sender has not sent any weather packets the latest 1 day(s).
| Time | Temp. | Humidity | Pressure | Rain* | Wind** | Luminosity | Snow |
|---|---|---|---|---|---|---|---|
| 1778018559 | 20° C | 62% | 1017 hPa | 0 mm | 0.89 m/s, 272° | 581 W/m² | - |
| 1778018257 | 19.44° C | 64% | 1017 hPa | 0 mm | 2.24 m/s, 171° | 593 W/m² | - |
| 1778017955 | 18.89° C | 64% | 1016.9 hPa | 0 mm | 1.34 m/s, 233° | 602 W/m² | - |
| 1778017653 | 18.89° C | 62% | 1016.9 hPa | 0 mm | 1.79 m/s, 251° | 613 W/m² | - |
| 1778017350 | 20° C | 62% | 1017 hPa | 0 mm | 2.68 m/s, 265° | 623 W/m² | - |
| 1778017047 | 20° C | 60% | 1017.1 hPa | 0 mm | 2.24 m/s, 150° | 631 W/m² | - |
| 1778016744 | 20° C | 59% | 1017 hPa | 0 mm | 0.89 m/s, 211° | 642 W/m² | - |
| 1778016440 | 21.11° C | 56% | 1017 hPa | 0 mm | 1.79 m/s, 248° | 650 W/m² | - |
| 1778016138 | 20.56° C | 58% | 1017.1 hPa | 0 mm | 1.34 m/s, 214° | 657 W/m² | - |
| 1778015834 | 20° C | 57% | 1017.1 hPa | 0 mm | 2.24 m/s, 76° | 665 W/m² | - |
| 1778015532 | 19.44° C | 61% | 1017.2 hPa | 0 mm | 0.89 m/s, 263° | 673 W/m² | - |
| 1778015228 | 20.56° C | 59% | 1017.4 hPa | 0 mm | 2.68 m/s, 210° | 679 W/m² | - |
| 1778014925 | 20° C | 58% | 1017.2 hPa | 0 mm | 0.89 m/s, 337° | 684 W/m² | - |
| 1778014623 | 19.44° C | 59% | 1017.2 hPa | 0 mm | 3.13 m/s, 219° | 690 W/m² | - |
| 1778014320 | 20° C | 59% | 1017.2 hPa | 0 mm | 2.24 m/s, 281° | 698 W/m² | - |
| 1778014017 | 19.44° C | 60% | 1017.2 hPa | 0 mm | 3.13 m/s, 262° | 700 W/m² | - |
| 1778013715 | 20.56° C | 60% | 1017.1 hPa | 0 mm | 1.79 m/s, 177° | 709 W/m² | - |
| 1778013412 | 20° C | 63% | 1017.1 hPa | 0 mm | 2.68 m/s, 285° | 715 W/m² | - |
| 1778013108 | 19.44° C | 63% | 1017.3 hPa | 0 mm | 3.13 m/s, 239° | 720 W/m² | - |
| 1778012804 | 19.44° C | 64% | 1017.4 hPa | 0 mm | 0.45 m/s, 285° | 732 W/m² | - |
| 1778012500 | 19.44° C | 62% | 1017.2 hPa | 0 mm | 0.89 m/s, 276° | 738 W/m² | - |
| 1778012197 | 20° C | 65% | 1017.2 hPa | 0 mm | 2.68 m/s, 248° | 751 W/m² | - |
| 1778011895 | 19.44° C | 65% | 1017.5 hPa | 0 mm | 2.68 m/s, 239° | 687 W/m² | - |
| 1778011593 | 18.89° C | 66% | 1017.4 hPa | 0 mm | 2.24 m/s, 250° | 698 W/m² | - |
| 1778011289 | 18.89° C | 65% | 1017.3 hPa | 0 mm | 1.79 m/s, 209° | 521 W/m² | - |
* Rain latest hour (hover to see other rain measurements)
** Current wind speed in m/s (hover to see current wind gust speed)